Terminal Aerodrome Forecast
Issued by NWS Bismarck, ND

Home | Current Version | Previous Version | Graphics & Text | Print | Product List | Glossary On
Versions: 1 2 3 4 5 6 7 8 9 10 11 12 13 14 15 16 17 18 19 20 21 22 23
000
FTUS43 KBIS 291900 AAA
TAFBIS
TAF AMD
KBIS 291959Z 2920/3018 10012KT P6SM SCT025 OVC045
     FM300200 10012KT P6SM OVC025
     FM300600 11012KT P6SM OVC015
     FM301300 11015G23KT P6SM OVC008=

USA.gov is the U.S. government's official web portal to all federal, state and local government web resources and services.